createdAt,value
2022-12-16T00:03:18.658Z,-7.04
2022-12-16T00:08:20.154Z,-6.95
2022-12-16T00:13:21.485Z,-6.95
2022-12-16T00:18:23.498Z,-7.19
2022-12-16T00:23:24.928Z,-7.01
2022-12-16T00:28:26.798Z,-7.07
2022-12-16T00:33:29.264Z,-7.12
2022-12-16T00:38:30.797Z,-7.13
2022-12-16T00:43:32.842Z,-7.10
2022-12-16T00:48:34.584Z,-7.21
2022-12-16T00:53:36.564Z,-7.25
2022-12-16T00:58:38.519Z,-7.29
2022-12-16T01:03:40.768Z,-7.41
2022-12-16T01:08:43.033Z,-7.32
2022-12-16T01:13:45.003Z,-7.45
2022-12-16T01:18:46.825Z,-7.38
2022-12-16T01:23:48.346Z,-7.34
2022-12-16T01:28:49.850Z,-7.45
2022-12-16T01:33:51.235Z,-7.38
2022-12-16T01:38:52.748Z,-7.45
2022-12-16T01:44:13.974Z,-7.46
2022-12-16T01:49:39.848Z,-7.45
2022-12-16T02:00:05.524Z,-7.73
2022-12-16T02:05:07.175Z,-7.81
2022-12-16T02:10:09.088Z,-7.82
2022-12-16T02:15:24.963Z,-7.87
2022-12-16T02:20:55.377Z,-7.85
2022-12-16T02:26:47.542Z,-7.85
2022-12-16T02:32:08.723Z,-7.87
2022-12-16T02:37:23.849Z,-7.95
2022-12-16T02:42:38.905Z,-7.94
2022-12-16T02:47:40.357Z,-8.03
2022-12-16T02:52:42.171Z,-8.17
2022-12-16T02:58:00.750Z,-8.05
2022-12-16T03:03:18.240Z,-8.04
2022-12-16T03:08:26.567Z,-8.03
2022-12-16T03:13:32.996Z,-7.99
2022-12-16T03:24:07.614Z,-7.94
2022-12-16T03:29:16.270Z,-7.88
2022-12-16T03:39:51.707Z,-7.77
2022-12-16T03:44:53.587Z,-7.68
2022-12-16T03:49:55.130Z,-7.67
2022-12-16T03:54:56.843Z,-7.77
2022-12-16T03:59:58.216Z,-7.70
2022-12-16T04:04:59.602Z,-7.66
2022-12-16T04:10:01.223Z,-7.61
2022-12-16T04:15:03.023Z,-7.66
2022-12-16T04:20:04.936Z,-7.69
2022-12-16T04:30:35.826Z,-7.71
2022-12-16T04:35:37.206Z,-7.82
2022-12-16T04:40:38.600Z,-7.74
2022-12-16T04:45:40.854Z,-7.82
2022-12-16T04:50:42.378Z,-7.80
2022-12-16T04:55:43.795Z,-7.80
2022-12-16T05:00:46.440Z,-7.83
2022-12-16T05:05:48.349Z,-7.96
2022-12-16T05:10:49.680Z,-7.83
2022-12-16T05:15:51.062Z,-8.10
2022-12-16T05:20:52.554Z,-8.03
2022-12-16T05:25:53.980Z,-8.01
2022-12-16T05:36:14.359Z,-7.95
2022-12-16T05:41:15.757Z,-8.14
2022-12-16T05:46:17.352Z,-8.10
2022-12-16T05:51:18.786Z,-8.03
2022-12-16T05:56:20.133Z,-8.08
2022-12-16T06:01:21.690Z,-8.16
2022-12-16T06:06:23.160Z,-8.20
2022-12-16T06:11:24.672Z,-8.16
2022-12-16T06:16:26.508Z,-8.22
2022-12-16T06:21:27.921Z,-8.31
2022-12-16T06:26:29.347Z,-8.27
2022-12-16T06:31:30.888Z,-8.45
2022-12-16T06:36:32.302Z,-8.31
2022-12-16T06:41:33.748Z,-8.21
2022-12-16T06:46:35.065Z,-8.19
2022-12-16T06:51:36.485Z,-8.25
2022-12-16T06:56:38.265Z,-8.20
2022-12-16T07:01:39.776Z,-8.26
2022-12-16T07:06:41.301Z,-8.26
2022-12-16T07:11:42.727Z,-8.30
2022-12-16T07:16:44.783Z,-8.10
2022-12-16T07:21:46.256Z,-8.01
2022-12-16T07:26:47.664Z,-7.99
2022-12-16T07:31:49.114Z,-7.97
2022-12-16T07:36:50.455Z,-7.80
2022-12-16T07:41:52.111Z,-7.85
2022-12-16T07:46:53.498Z,-7.69
2022-12-16T07:51:56.871Z,-7.61
2022-12-16T07:56:58.296Z,-7.66
2022-12-16T08:01:59.800Z,-7.85
2022-12-16T08:07:01.292Z,-7.85
2022-12-16T08:12:02.704Z,-7.73
2022-12-16T08:17:04.261Z,-7.68
2022-12-16T08:22:07.113Z,-7.82
2022-12-16T08:27:08.578Z,-7.86
2022-12-16T08:32:09.960Z,-7.84
2022-12-16T08:37:11.506Z,-7.68
2022-12-16T08:42:12.930Z,-7.68
2022-12-16T08:47:14.376Z,-7.43
2022-12-16T08:52:15.967Z,-7.26
2022-12-16T08:57:17.433Z,-7.23
2022-12-16T09:02:19.252Z,-7.23
2022-12-16T09:07:20.831Z,-7.08
2022-12-16T09:12:22.207Z,-7.03
2022-12-16T09:17:23.628Z,-7.05
2022-12-16T09:22:24.977Z,-6.79
2022-12-16T09:27:26.341Z,-6.66
2022-12-16T09:32:27.945Z,-6.65
2022-12-16T09:37:29.288Z,-6.38
2022-12-16T09:42:35.859Z,-6.25
2022-12-16T09:47:45.072Z,-6.09
2022-12-16T09:52:52.945Z,-6.04
2022-12-16T09:57:54.583Z,-5.85
2022-12-16T10:03:03.442Z,-5.84
2022-12-16T10:08:39.462Z,-5.63
2022-12-16T10:13:51.520Z,-5.57
2022-12-16T10:19:27.072Z,-5.53
2022-12-16T10:24:52.829Z,-5.28
2022-12-16T10:29:55.108Z,-5.21
2022-12-16T10:34:57.450Z,-5.18
2022-12-16T10:40:00.646Z,-5.03
2022-12-16T10:45:03.386Z,-5.02
2022-12-16T10:50:05.516Z,-4.69
2022-12-16T10:55:30.420Z,-4.48
2022-12-16T11:00:39.674Z,-4.35
2022-12-16T11:05:41.186Z,-4.42
2022-12-16T11:10:44.725Z,-4.19
2022-12-16T11:15:46.265Z,-4.07
2022-12-16T11:21:11.324Z,-3.93
2022-12-16T11:26:17.596Z,-3.82
2022-12-16T11:31:19.104Z,-3.76
2022-12-16T11:36:23.297Z,-3.58
2022-12-16T11:41:29.818Z,-3.46
2022-12-16T11:46:31.691Z,-3.35
2022-12-16T11:51:36.016Z,-2.97
2022-12-16T11:56:40.465Z,-2.67
2022-12-16T12:01:52.244Z,-2.35
2022-12-16T12:07:06.848Z,-2.12
2022-12-16T12:12:20.459Z,-1.93
2022-12-16T12:17:32.959Z,-1.58
2022-12-16T12:22:37.059Z,-1.48
2022-12-16T12:28:00.323Z,-1.46
2022-12-16T12:33:20.537Z,-1.39
2022-12-16T12:38:31.625Z,-1.27
2022-12-16T12:43:52.996Z,-0.96
2022-12-16T12:49:46.941Z,-0.80
2022-12-16T12:54:59.182Z,-0.57
2022-12-16T13:00:10.176Z,-0.30
2022-12-16T13:05:17.442Z,-0.16
2022-12-16T13:10:26.447Z,-0.02
2022-12-16T13:15:38.980Z,0.12
2022-12-16T13:20:40.510Z,0.18
2022-12-16T13:25:51.732Z,0.14
2022-12-16T13:31:03.872Z,-0.27
2022-12-16T13:36:06.560Z,-0.50
2022-12-16T13:41:37.240Z,-0.85
2022-12-16T13:46:47.037Z,-0.92
2022-12-16T13:52:02.039Z,-1.17
2022-12-16T13:57:04.558Z,-1.28
2022-12-16T14:02:19.536Z,-1.50
2022-12-16T14:07:24.930Z,-1.64
2022-12-16T14:12:49.426Z,-1.69
2022-12-16T14:18:02.748Z,-1.78
2022-12-16T14:23:55.334Z,-1.77
2022-12-16T14:28:49.794Z,-1.83
2022-12-16T14:33:54.521Z,-2.11
2022-12-16T14:38:56.704Z,-2.29
2022-12-16T14:43:58.349Z,-2.45
2022-12-16T14:48:59.749Z,-2.50
2022-12-16T14:54:42.391Z,-2.63
2022-12-16T14:59:43.832Z,-2.79
2022-12-16T15:04:45.833Z,-2.83
2022-12-16T15:09:52.499Z,-2.92
2022-12-16T15:14:58.672Z,-2.89
2022-12-16T15:20:03.390Z,-2.91
2022-12-16T15:25:06.271Z,-2.87
2022-12-16T15:30:43.280Z,-2.88
2022-12-16T15:35:44.757Z,-2.96
2022-12-16T15:40:50.897Z,-2.92
2022-12-16T15:45:52.386Z,-2.93
2022-12-16T15:50:53.919Z,-2.95
2022-12-16T15:56:02.579Z,-3.01
2022-12-16T16:01:08.187Z,-2.91
2022-12-16T16:06:22.251Z,-3.01
2022-12-16T16:11:23.635Z,-2.96
2022-12-16T16:16:25.296Z,-2.89
2022-12-16T16:21:27.364Z,-2.87
2022-12-16T16:26:28.906Z,-2.83
2022-12-16T16:31:30.409Z,-2.78
2022-12-16T16:36:31.832Z,-2.80
2022-12-16T16:41:33.276Z,-2.76
2022-12-16T16:46:37.837Z,-2.71
2022-12-16T16:51:39.305Z,-2.68
2022-12-16T16:56:40.809Z,-2.66
2022-12-16T17:01:42.393Z,-2.56
2022-12-16T17:06:43.867Z,-2.56
2022-12-16T17:11:45.317Z,-2.53
2022-12-16T17:16:46.710Z,-2.45
2022-12-16T17:21:48.232Z,-2.42
2022-12-16T17:26:49.712Z,-2.37
2022-12-16T17:31:51.153Z,-2.41
2022-12-16T17:36:53.979Z,-2.44
2022-12-16T17:41:55.553Z,-2.41
2022-12-16T17:46:57.137Z,-2.33
2022-12-16T17:51:58.707Z,-2.31
2022-12-16T17:57:00.369Z,-2.34
2022-12-16T18:02:02.327Z,-2.26
2022-12-16T18:07:03.863Z,-2.18
2022-12-16T18:12:05.488Z,-2.22
2022-12-16T18:17:06.963Z,-2.23
2022-12-16T18:22:08.472Z,-2.17
2022-12-16T18:27:09.964Z,-2.15
2022-12-16T18:32:11.669Z,-2.11
2022-12-16T18:37:13.525Z,-2.12
2022-12-16T18:42:14.885Z,-2.11
2022-12-16T18:47:16.938Z,-2.11
2022-12-16T18:52:19.338Z,-2.09
2022-12-16T18:57:20.746Z,-2.06
2022-12-16T19:02:22.361Z,-2.12
2022-12-16T19:07:23.879Z,-2.19
2022-12-16T19:12:25.285Z,-2.15
2022-12-16T19:17:26.652Z,-2.12
2022-12-16T19:22:27.984Z,-2.15
2022-12-16T19:27:29.489Z,-2.08
2022-12-16T19:32:31.005Z,-2.16
2022-12-16T19:37:32.483Z,-2.11
2022-12-16T19:42:34.037Z,-2.09
2022-12-16T19:47:35.489Z,-2.13
2022-12-16T19:52:37.017Z,-2.11
2022-12-16T19:57:38.522Z,-2.14
2022-12-16T20:02:40.090Z,-2.09
2022-12-16T20:07:41.636Z,-2.05
2022-12-16T20:12:43.036Z,-2.11
2022-12-16T20:17:44.438Z,-2.12
2022-12-16T20:22:45.831Z,-2.17
2022-12-16T20:27:47.320Z,-2.09
2022-12-16T20:32:48.908Z,-2.05
2022-12-16T20:37:50.325Z,-2.07
2022-12-16T20:42:53.340Z,-2.19
2022-12-16T20:47:56.419Z,-2.24
2022-12-16T20:52:58.134Z,-2.27
2022-12-16T20:57:59.609Z,-2.21
2022-12-16T21:03:01.084Z,-2.26
2022-12-16T21:08:02.539Z,-2.28
2022-12-16T21:13:13.837Z,-2.21
2022-12-16T21:18:15.228Z,-2.26
2022-12-16T21:23:16.586Z,-2.31
2022-12-16T21:28:17.963Z,-2.40
2022-12-16T21:33:21.002Z,-2.34
2022-12-16T21:38:22.372Z,-2.34
2022-12-16T21:43:24.290Z,-2.36
2022-12-16T21:48:25.639Z,-2.43
2022-12-16T21:53:27.024Z,-2.35
2022-12-16T21:58:28.731Z,-2.31
2022-12-16T22:03:35.178Z,-2.23
2022-12-16T22:08:36.823Z,-2.26
2022-12-16T22:13:38.712Z,-2.31
2022-12-16T22:18:43.674Z,-2.28
2022-12-16T22:23:45.184Z,-2.26
2022-12-16T22:28:46.909Z,-2.19
2022-12-16T22:33:50.271Z,-2.22
2022-12-16T22:38:52.676Z,-2.23
2022-12-16T22:43:54.117Z,-2.26
2022-12-16T22:48:57.655Z,-2.24
2022-12-16T22:53:59.517Z,-2.23
2022-12-16T22:59:00.921Z,-2.23
2022-12-16T23:04:02.483Z,-2.27
2022-12-16T23:09:05.201Z,-2.17
2022-12-16T23:14:06.620Z,-2.19
2022-12-16T23:19:08.046Z,-2.08
2022-12-16T23:24:10.632Z,-2.13
2022-12-16T23:29:12.068Z,-2.13
2022-12-16T23:34:14.225Z,-2.22
2022-12-16T23:39:15.788Z,-2.14
2022-12-16T23:44:17.162Z,-2.06
2022-12-16T23:49:18.525Z,-2.05
2022-12-16T23:54:19.820Z,-2.04
2022-12-16T23:59:21.168Z,-2.16
